Leflore, Oklahoma
Current Conditions -  °F | °C
As of 3:15 AM on Monday 22 Dec 2014 (Local Time) from KRKR Reporting Station
Overcast Overcast  
Wind Chill: 47°   Ceiling: 2300
Heat Index: 49°   Visibility: 10mi
Dew Point: 44°   Wind: 6mph
Humidity: 83%   Direction: 140°SE
Pressure: 29.68"   Gusts: NA
Location:  34.9°N, 94.98°W
Report Text: KRKR 220915Z AUTO 14005KT 10SM OVC023 10/07 A2968 RMK AO2 T00950067
Loading
Personal Weather Stations






























Interactive Weather Map New forecast layout! Learn more

10-Day Weather Forecast

Advertisements
Track Severe Weather on mobile